KFYM/FYM METAR and TAF weather

Enter ICAO airport designator
Station Type Date Time Source
KFYM METAR 2022/12/10 01:15 UTC NOAA

KFYM 100115Z AUTO 36007KT 10SM BKN012 OVC019 15/14 A3015 RMK A01


Station Type Date Time Source
KFYM Decoded METAR 2022/12/10 01:15 UTC NOAA

Station name not available
Dec 09, 2022 - 08:15 PM EST / 2022.12.10 0115 UTC
Wind: from the N (360 degrees) at 8 MPH (7 KT):0
Visibility: 10 mile(s):0
Sky conditions: overcast
Temperature: 59 F (15 C)
Dew Point: 57 F (14 C)
Relative Humidity: 93%
Pressure (altimeter): 30.15 in. Hg (1020 hPa)
ob: KFYM 100115Z AUTO 36007KT 10SM BKN012 OVC019 15/14 A3015 RMK A01
cycle: 1

Station Type Date Time Source
KFYM TAF 2009/08/31 19:45 UTC NOAA

METAR KFYM 311945Z AUTO 01006KT 10SM CLR 26/11 A3009
RMK AO1 T02550111 $

Example: see airport list